sensor_id;sensor_type;location;lat;lon;timestamp;temperature;humidity
14585;DHT22;7379;51.506;11.876;2022-12-18T00:02:06;-1.70;64.50
14585;DHT22;7379;51.506;11.876;2022-12-18T00:04:33;-1.70;64.50
14585;DHT22;7379;51.506;11.876;2022-12-18T00:07:01;-1.80;64.40
14585;DHT22;7379;51.506;11.876;2022-12-18T00:09:28;-1.70;64.50
14585;DHT22;7379;51.506;11.876;2022-12-18T00:11:55;-1.80;64.40
14585;DHT22;7379;51.506;11.876;2022-12-18T00:14:21;-1.80;64.30
14585;DHT22;7379;51.506;11.876;2022-12-18T00:16:48;-1.80;64.30
14585;DHT22;7379;51.506;11.876;2022-12-18T00:19:15;-1.80;64.20
14585;DHT22;7379;51.506;11.876;2022-12-18T00:21:43;-1.80;64.10
14585;DHT22;7379;51.506;11.876;2022-12-18T00:24:12;-1.80;64.10
14585;DHT22;7379;51.506;11.876;2022-12-18T00:26:39;-1.80;64.00
14585;DHT22;7379;51.506;11.876;2022-12-18T00:29:07;-1.80;64.00
14585;DHT22;7379;51.506;11.876;2022-12-18T00:31:35;-1.80;64.00
14585;DHT22;7379;51.506;11.876;2022-12-18T00:34:02;-1.80;64.00
14585;DHT22;7379;51.506;11.876;2022-12-18T00:36:32;-1.80;64.00
14585;DHT22;7379;51.506;11.876;2022-12-18T00:39:00;-1.80;64.00
14585;DHT22;7379;51.506;11.876;2022-12-18T00:41:29;-1.80;64.00
14585;DHT22;7379;51.506;11.876;2022-12-18T00:44:14;-1.80;64.00
14585;DHT22;7379;51.506;11.876;2022-12-18T00:46:42;-1.80;64.00
14585;DHT22;7379;51.506;11.876;2022-12-18T00:49:09;-1.80;63.90
14585;DHT22;7379;51.506;11.876;2022-12-18T00:51:39;-1.80;63.90
14585;DHT22;7379;51.506;11.876;2022-12-18T00:54:06;-1.80;63.80
14585;DHT22;7379;51.506;11.876;2022-12-18T00:56:35;-1.90;63.80
14585;DHT22;7379;51.506;11.876;2022-12-18T00:59:02;-1.80;63.80
14585;DHT22;7379;51.506;11.876;2022-12-18T01:01:28;-1.90;63.80
14585;DHT22;7379;51.506;11.876;2022-12-18T01:03:55;-1.90;63.80
14585;DHT22;7379;51.506;11.876;2022-12-18T01:06:25;-1.90;63.80
14585;DHT22;7379;51.506;11.876;2022-12-18T01:08:52;-1.90;63.70
14585;DHT22;7379;51.506;11.876;2022-12-18T01:11:20;-1.90;63.70
14585;DHT22;7379;51.506;11.876;2022-12-18T01:13:48;-1.90;63.70
14585;DHT22;7379;51.506;11.876;2022-12-18T01:16:17;-1.90;63.70
14585;DHT22;7379;51.506;11.876;2022-12-18T01:18:44;-1.90;63.60
14585;DHT22;7379;51.506;11.876;2022-12-18T01:21:13;-1.90;63.60
14585;DHT22;7379;51.506;11.876;2022-12-18T01:23:40;-1.90;63.60
14585;DHT22;7379;51.506;11.876;2022-12-18T01:26:12;-1.90;63.70
14585;DHT22;7379;51.506;11.876;2022-12-18T01:28:40;-1.90;63.60
14585;DHT22;7379;51.506;11.876;2022-12-18T01:31:16;-1.90;63.60
14585;DHT22;7379;51.506;11.876;2022-12-18T01:36:18;-2.00;63.50
14585;DHT22;7379;51.506;11.876;2022-12-18T01:38:46;-2.00;63.50
14585;DHT22;7379;51.506;11.876;2022-12-18T01:41:14;-2.00;63.50
14585;DHT22;7379;51.506;11.876;2022-12-18T01:43:46;-2.00;63.40
14585;DHT22;7379;51.506;11.876;2022-12-18T01:46:15;-2.00;63.40
14585;DHT22;7379;51.506;11.876;2022-12-18T01:48:42;-2.00;63.30
14585;DHT22;7379;51.506;11.876;2022-12-18T01:51:11;-2.00;63.30
14585;DHT22;7379;51.506;11.876;2022-12-18T01:53:40;-2.00;63.30
14585;DHT22;7379;51.506;11.876;2022-12-18T01:56:10;-2.00;63.20
14585;DHT22;7379;51.506;11.876;2022-12-18T01:58:43;-2.00;63.10
14585;DHT22;7379;51.506;11.876;2022-12-18T02:01:13;-2.00;63.10
14585;DHT22;7379;51.506;11.876;2022-12-18T02:03:41;-2.00;63.10
14585;DHT22;7379;51.506;11.876;2022-12-18T02:06:13;-2.00;63.00
14585;DHT22;7379;51.506;11.876;2022-12-18T02:08:46;-2.10;63.00
14585;DHT22;7379;51.506;11.876;2022-12-18T02:11:20;-2.10;62.90
14585;DHT22;7379;51.506;11.876;2022-12-18T02:13:53;-2.10;62.80
14585;DHT22;7379;51.506;11.876;2022-12-18T02:16:26;-2.10;62.80
14585;DHT22;7379;51.506;11.876;2022-12-18T02:18:59;-2.10;62.70
14585;DHT22;7379;51.506;11.876;2022-12-18T02:21:32;-2.10;62.60
14585;DHT22;7379;51.506;11.876;2022-12-18T02:24:13;-2.10;62.60
14585;DHT22;7379;51.506;11.876;2022-12-18T02:26:47;-2.10;62.50
14585;DHT22;7379;51.506;11.876;2022-12-18T02:29:18;-2.10;62.40
14585;DHT22;7379;51.506;11.876;2022-12-18T02:31:50;-2.10;62.40
14585;DHT22;7379;51.506;11.876;2022-12-18T02:34:20;-2.20;62.30
14585;DHT22;7379;51.506;11.876;2022-12-18T02:36:49;-2.10;62.30
14585;DHT22;7379;51.506;11.876;2022-12-18T02:39:17;-2.20;62.30
14585;DHT22;7379;51.506;11.876;2022-12-18T02:41:48;-2.20;62.20
14585;DHT22;7379;51.506;11.876;2022-12-18T02:44:15;-2.20;62.20
14585;DHT22;7379;51.506;11.876;2022-12-18T02:46:46;-2.20;62.20
14585;DHT22;7379;51.506;11.876;2022-12-18T02:49:26;-2.20;62.10
14585;DHT22;7379;51.506;11.876;2022-12-18T02:52:04;-2.20;62.00
14585;DHT22;7379;51.506;11.876;2022-12-18T02:54:45;-2.20;62.00
14585;DHT22;7379;51.506;11.876;2022-12-18T02:57:23;-2.20;61.90
14585;DHT22;7379;51.506;11.876;2022-12-18T02:59:57;-2.20;61.90
14585;DHT22;7379;51.506;11.876;2022-12-18T03:02:29;-2.20;61.80
14585;DHT22;7379;51.506;11.876;2022-12-18T03:05:04;-2.30;61.70
14585;DHT22;7379;51.506;11.876;2022-12-18T03:07:37;-2.30;61.60
14585;DHT22;7379;51.506;11.876;2022-12-18T03:10:07;-2.30;61.60
14585;DHT22;7379;51.506;11.876;2022-12-18T03:12:38;-2.30;61.50
14585;DHT22;7379;51.506;11.876;2022-12-18T03:15:09;-2.30;61.50
14585;DHT22;7379;51.506;11.876;2022-12-18T03:17:42;-2.30;61.50
14585;DHT22;7379;51.506;11.876;2022-12-18T03:20:14;-2.30;61.40
14585;DHT22;7379;51.506;11.876;2022-12-18T03:22:43;-2.30;61.40
14585;DHT22;7379;51.506;11.876;2022-12-18T03:25:13;-2.30;61.40
14585;DHT22;7379;51.506;11.876;2022-12-18T03:27:46;-2.40;61.30
14585;DHT22;7379;51.506;11.876;2022-12-18T03:30:15;-2.40;61.30
14585;DHT22;7379;51.506;11.876;2022-12-18T03:32:46;-2.40;61.20
14585;DHT22;7379;51.506;11.876;2022-12-18T03:35:18;-2.40;61.20
14585;DHT22;7379;51.506;11.876;2022-12-18T03:37:45;-2.40;61.20
14585;DHT22;7379;51.506;11.876;2022-12-18T03:40:12;-2.40;61.10
14585;DHT22;7379;51.506;11.876;2022-12-18T03:42:46;-2.40;61.10
14585;DHT22;7379;51.506;11.876;2022-12-18T03:45:20;-2.40;61.10
14585;DHT22;7379;51.506;11.876;2022-12-18T03:47:57;-2.40;60.90
14585;DHT22;7379;51.506;11.876;2022-12-18T03:50:30;-2.40;60.90
14585;DHT22;7379;51.506;11.876;2022-12-18T03:53:02;-2.40;60.80
14585;DHT22;7379;51.506;11.876;2022-12-18T03:55:33;-2.40;60.80
14585;DHT22;7379;51.506;11.876;2022-12-18T03:58:03;-2.50;60.70
14585;DHT22;7379;51.506;11.876;2022-12-18T04:00:32;-2.50;60.70
14585;DHT22;7379;51.506;11.876;2022-12-18T04:03:01;-2.50;60.70
14585;DHT22;7379;51.506;11.876;2022-12-18T04:05:28;-2.50;60.60
14585;DHT22;7379;51.506;11.876;2022-12-18T04:07:56;-2.50;60.60
14585;DHT22;7379;51.506;11.876;2022-12-18T04:10:23;-2.50;60.50
14585;DHT22;7379;51.506;11.876;2022-12-18T04:12:50;-2.50;60.50
14585;DHT22;7379;51.506;11.876;2022-12-18T04:15:18;-2.50;60.50
14585;DHT22;7379;51.506;11.876;2022-12-18T04:17:48;-2.50;60.40
14585;DHT22;7379;51.506;11.876;2022-12-18T04:20:15;-2.50;60.40
14585;DHT22;7379;51.506;11.876;2022-12-18T04:22:42;-2.50;60.30
14585;DHT22;7379;51.506;11.876;2022-12-18T04:25:09;-2.50;60.20
14585;DHT22;7379;51.506;11.876;2022-12-18T04:27:39;-2.60;60.10
14585;DHT22;7379;51.506;11.876;2022-12-18T04:30:06;-2.60;60.20
14585;DHT22;7379;51.506;11.876;2022-12-18T04:32:35;-2.60;60.00
14585;DHT22;7379;51.506;11.876;2022-12-18T04:35:02;-2.60;60.00
14585;DHT22;7379;51.506;11.876;2022-12-18T04:37:32;-2.60;60.00
14585;DHT22;7379;51.506;11.876;2022-12-18T04:39:59;-2.60;59.90
14585;DHT22;7379;51.506;11.876;2022-12-18T04:42:26;-2.60;59.80
14585;DHT22;7379;51.506;11.876;2022-12-18T04:44:53;-2.60;59.90
14585;DHT22;7379;51.506;11.876;2022-12-18T04:47:19;-2.60;59.90
14585;DHT22;7379;51.506;11.876;2022-12-18T04:49:47;-2.60;59.90
14585;DHT22;7379;51.506;11.876;2022-12-18T04:52:14;-2.60;59.80
14585;DHT22;7379;51.506;11.876;2022-12-18T04:54:41;-2.60;59.80
14585;DHT22;7379;51.506;11.876;2022-12-18T04:57:08;-2.70;59.70
14585;DHT22;7379;51.506;11.876;2022-12-18T04:59:34;-2.70;59.70
14585;DHT22;7379;51.506;11.876;2022-12-18T05:02:01;-2.70;59.70
14585;DHT22;7379;51.506;11.876;2022-12-18T05:04:28;-2.70;59.70
14585;DHT22;7379;51.506;11.876;2022-12-18T05:06:56;-2.70;59.60
14585;DHT22;7379;51.506;11.876;2022-12-18T05:09:23;-2.70;59.60
14585;DHT22;7379;51.506;11.876;2022-12-18T05:11:50;-2.70;59.60
14585;DHT22;7379;51.506;11.876;2022-12-18T05:14:17;-2.70;59.60
14585;DHT22;7379;51.506;11.876;2022-12-18T05:16:43;-2.70;59.60
14585;DHT22;7379;51.506;11.876;2022-12-18T05:19:10;-2.80;59.60
14585;DHT22;7379;51.506;11.876;2022-12-18T05:21:37;-2.80;59.60
14585;DHT22;7379;51.506;11.876;2022-12-18T05:24:06;-2.80;59.60
14585;DHT22;7379;51.506;11.876;2022-12-18T05:26:33;-2.80;59.40
14585;DHT22;7379;51.506;11.876;2022-12-18T05:29:00;-2.80;59.30
14585;DHT22;7379;51.506;11.876;2022-12-18T05:31:26;-2.80;59.30
14585;DHT22;7379;51.506;11.876;2022-12-18T05:33:53;-2.80;59.30
14585;DHT22;7379;51.506;11.876;2022-12-18T05:36:20;-2.80;59.20
14585;DHT22;7379;51.506;11.876;2022-12-18T05:38:47;-2.80;59.30
14585;DHT22;7379;51.506;11.876;2022-12-18T05:41:15;-2.80;59.10
14585;DHT22;7379;51.506;11.876;2022-12-18T05:43:42;-2.90;59.00
14585;DHT22;7379;51.506;11.876;2022-12-18T05:46:12;-2.80;59.10
14585;DHT22;7379;51.506;11.876;2022-12-18T05:48:39;-2.90;59.00
14585;DHT22;7379;51.506;11.876;2022-12-18T05:51:08;-2.90;59.00
14585;DHT22;7379;51.506;11.876;2022-12-18T05:53:35;-2.90;59.00
14585;DHT22;7379;51.506;11.876;2022-12-18T05:56:04;-2.90;59.00
14585;DHT22;7379;51.506;11.876;2022-12-18T05:58:32;-2.90;59.00
14585;DHT22;7379;51.506;11.876;2022-12-18T06:01:06;-2.90;59.00
14585;DHT22;7379;51.506;11.876;2022-12-18T06:03:33;-2.90;58.90
14585;DHT22;7379;51.506;11.876;2022-12-18T06:06:00;-2.90;58.90
14585;DHT22;7379;51.506;11.876;2022-12-18T06:08:27;-3.00;58.70
14585;DHT22;7379;51.506;11.876;2022-12-18T06:10:54;-3.00;58.70
14585;DHT22;7379;51.506;11.876;2022-12-18T06:13:21;-2.90;58.70
14585;DHT22;7379;51.506;11.876;2022-12-18T06:15:49;-3.00;58.50
14585;DHT22;7379;51.506;11.876;2022-12-18T06:18:16;-3.00;58.50
14585;DHT22;7379;51.506;11.876;2022-12-18T06:20:42;-3.00;58.50
14585;DHT22;7379;51.506;11.876;2022-12-18T06:23:09;-3.00;58.40
14585;DHT22;7379;51.506;11.876;2022-12-18T06:25:38;-3.00;58.40
14585;DHT22;7379;51.506;11.876;2022-12-18T06:28:05;-3.00;58.40
14585;DHT22;7379;51.506;11.876;2022-12-18T06:30:32;-3.00;58.30
14585;DHT22;7379;51.506;11.876;2022-12-18T06:33:00;-3.10;58.30
14585;DHT22;7379;51.506;11.876;2022-12-18T06:35:31;-3.10;58.20
14585;DHT22;7379;51.506;11.876;2022-12-18T06:37:58;-3.10;58.20
14585;DHT22;7379;51.506;11.876;2022-12-18T06:40:27;-3.10;58.10
14585;DHT22;7379;51.506;11.876;2022-12-18T06:42:54;-3.10;58.10
14585;DHT22;7379;51.506;11.876;2022-12-18T06:45:21;-3.10;58.10
14585;DHT22;7379;51.506;11.876;2022-12-18T06:47:47;-3.10;58.00
14585;DHT22;7379;51.506;11.876;2022-12-18T06:50:16;-3.10;57.90
14585;DHT22;7379;51.506;11.876;2022-12-18T06:52:42;-3.10;57.90
14585;DHT22;7379;51.506;11.876;2022-12-18T06:55:10;-3.10;57.90
14585;DHT22;7379;51.506;11.876;2022-12-18T06:57:37;-3.10;57.90
14585;DHT22;7379;51.506;11.876;2022-12-18T07:00:06;-3.20;57.80
14585;DHT22;7379;51.506;11.876;2022-12-18T07:02:33;-3.20;57.70
14585;DHT22;7379;51.506;11.876;2022-12-18T07:05:00;-3.20;57.70
14585;DHT22;7379;51.506;11.876;2022-12-18T07:07:28;-3.20;57.70
14585;DHT22;7379;51.506;11.876;2022-12-18T07:09:55;-3.20;57.50
14585;DHT22;7379;51.506;11.876;2022-12-18T07:12:22;-3.20;57.50
14585;DHT22;7379;51.506;11.876;2022-12-18T07:14:49;-3.20;57.50
14585;DHT22;7379;51.506;11.876;2022-12-18T07:17:15;-3.20;57.40
14585;DHT22;7379;51.506;11.876;2022-12-18T07:19:42;-3.30;57.30
14585;DHT22;7379;51.506;11.876;2022-12-18T07:22:09;-3.30;57.30
14585;DHT22;7379;51.506;11.876;2022-12-18T07:24:37;-3.30;57.30
14585;DHT22;7379;51.506;11.876;2022-12-18T07:27:04;-3.20;57.30
14585;DHT22;7379;51.506;11.876;2022-12-18T07:29:30;-3.30;57.20
14585;DHT22;7379;51.506;11.876;2022-12-18T07:31:57;-3.30;57.10
14585;DHT22;7379;51.506;11.876;2022-12-18T07:34:24;-3.30;57.10
14585;DHT22;7379;51.506;11.876;2022-12-18T07:36:51;-3.30;57.20
14585;DHT22;7379;51.506;11.876;2022-12-18T07:39:18;-3.30;57.10
14585;DHT22;7379;51.506;11.876;2022-12-18T07:41:46;-3.30;57.10
14585;DHT22;7379;51.506;11.876;2022-12-18T07:44:33;-3.40;57.00
14585;DHT22;7379;51.506;11.876;2022-12-18T07:46:59;-3.40;56.90
14585;DHT22;7379;51.506;11.876;2022-12-18T07:49:26;-3.40;56.90
14585;DHT22;7379;51.506;11.876;2022-12-18T07:51:54;-3.40;56.90
14585;DHT22;7379;51.506;11.876;2022-12-18T07:54:21;-3.40;56.90
14585;DHT22;7379;51.506;11.876;2022-12-18T07:56:49;-3.40;56.90
14585;DHT22;7379;51.506;11.876;2022-12-18T07:59:16;-3.40;56.90
14585;DHT22;7379;51.506;11.876;2022-12-18T08:01:43;-3.40;56.90
14585;DHT22;7379;51.506;11.876;2022-12-18T08:04:10;-3.40;56.90
14585;DHT22;7379;51.506;11.876;2022-12-18T08:06:37;-3.40;56.90
14585;DHT22;7379;51.506;11.876;2022-12-18T08:09:04;-3.40;56.90
14585;DHT22;7379;51.506;11.876;2022-12-18T08:11:31;-3.40;56.90
14585;DHT22;7379;51.506;11.876;2022-12-18T08:13:59;-3.40;56.90
14585;DHT22;7379;51.506;11.876;2022-12-18T08:16:26;-3.40;56.90
14585;DHT22;7379;51.506;11.876;2022-12-18T08:18:53;-3.40;56.90
14585;DHT22;7379;51.506;11.876;2022-12-18T08:21:22;-3.50;56.70
14585;DHT22;7379;51.506;11.876;2022-12-18T08:23:49;-3.50;56.70
14585;DHT22;7379;51.506;11.876;2022-12-18T08:26:16;-3.50;56.70
14585;DHT22;7379;51.506;11.876;2022-12-18T08:28:43;-3.50;56.70
14585;DHT22;7379;51.506;11.876;2022-12-18T08:31:11;-3.50;56.70
14585;DHT22;7379;51.506;11.876;2022-12-18T08:33:39;-3.50;56.70
14585;DHT22;7379;51.506;11.876;2022-12-18T08:36:08;-3.50;56.70
14585;DHT22;7379;51.506;11.876;2022-12-18T08:38:34;-3.50;56.70
14585;DHT22;7379;51.506;11.876;2022-12-18T08:41:04;-3.50;56.70
14585;DHT22;7379;51.506;11.876;2022-12-18T08:43:31;-3.50;56.70
14585;DHT22;7379;51.506;11.876;2022-12-18T08:46:17;-3.50;56.70
14585;DHT22;7379;51.506;11.876;2022-12-18T08:48:44;-3.50;56.70
14585;DHT22;7379;51.506;11.876;2022-12-18T08:51:11;-3.60;56.70
14585;DHT22;7379;51.506;11.876;2022-12-18T08:53:38;-3.50;56.80
14585;DHT22;7379;51.506;11.876;2022-12-18T08:56:06;-3.60;56.70
14585;DHT22;7379;51.506;11.876;2022-12-18T08:58:33;-3.60;56.70
14585;DHT22;7379;51.506;11.876;2022-12-18T09:01:00;-3.60;56.70
14585;DHT22;7379;51.506;11.876;2022-12-18T09:03:29;-3.60;56.70
14585;DHT22;7379;51.506;11.876;2022-12-18T09:05:55;-3.60;56.70
14585;DHT22;7379;51.506;11.876;2022-12-18T09:08:22;-3.60;56.80
14585;DHT22;7379;51.506;11.876;2022-12-18T09:10:50;-3.60;56.90
14585;DHT22;7379;51.506;11.876;2022-12-18T09:13:17;-3.60;56.90
14585;DHT22;7379;51.506;11.876;2022-12-18T09:15:46;-3.60;56.90
14585;DHT22;7379;51.506;11.876;2022-12-18T09:18:14;-3.60;56.90
14585;DHT22;7379;51.506;11.876;2022-12-18T09:20:42;-3.60;56.90
14585;DHT22;7379;51.506;11.876;2022-12-18T09:23:09;-3.60;57.00
14585;DHT22;7379;51.506;11.876;2022-12-18T09:25:37;-3.60;57.00
14585;DHT22;7379;51.506;11.876;2022-12-18T09:28:05;-3.60;57.00
14585;DHT22;7379;51.506;11.876;2022-12-18T09:30:32;-3.60;57.10
14585;DHT22;7379;51.506;11.876;2022-12-18T09:32:59;-3.60;57.10
14585;DHT22;7379;51.506;11.876;2022-12-18T09:35:26;-3.60;57.10
14585;DHT22;7379;51.506;11.876;2022-12-18T09:37:55;-3.60;57.20
14585;DHT22;7379;51.506;11.876;2022-12-18T09:40:24;-3.60;57.90
14585;DHT22;7379;51.506;11.876;2022-12-18T09:42:55;-3.60;57.30
14585;DHT22;7379;51.506;11.876;2022-12-18T09:45:24;-3.60;57.30
14585;DHT22;7379;51.506;11.876;2022-12-18T09:47:52;-3.60;57.40
14585;DHT22;7379;51.506;11.876;2022-12-18T09:50:24;-3.60;57.50
14585;DHT22;7379;51.506;11.876;2022-12-18T09:52:57;-3.60;57.60
14585;DHT22;7379;51.506;11.876;2022-12-18T09:55:30;-3.60;57.60
14585;DHT22;7379;51.506;11.876;2022-12-18T09:58:00;-3.60;57.70
14585;DHT22;7379;51.506;11.876;2022-12-18T10:00:28;-3.60;57.70
14585;DHT22;7379;51.506;11.876;2022-12-18T10:02:59;-3.60;57.80
14585;DHT22;7379;51.506;11.876;2022-12-18T10:05:33;-3.60;57.90
14585;DHT22;7379;51.506;11.876;2022-12-18T10:08:10;-3.60;58.00
14585;DHT22;7379;51.506;11.876;2022-12-18T10:10:42;-3.60;58.10
14585;DHT22;7379;51.506;11.876;2022-12-18T10:13:18;-3.60;58.10
14585;DHT22;7379;51.506;11.876;2022-12-18T10:16:00;-3.60;58.10
14585;DHT22;7379;51.506;11.876;2022-12-18T10:18:41;-3.60;58.20
14585;DHT22;7379;51.506;11.876;2022-12-18T10:21:11;-3.60;58.30
14585;DHT22;7379;51.506;11.876;2022-12-18T10:23:45;-3.60;58.40
14585;DHT22;7379;51.506;11.876;2022-12-18T10:26:13;-3.60;58.40
14585;DHT22;7379;51.506;11.876;2022-12-18T10:28:41;-3.60;58.50
14585;DHT22;7379;51.506;11.876;2022-12-18T10:31:13;-3.60;58.60
14585;DHT22;7379;51.506;11.876;2022-12-18T10:33:41;-3.60;58.60
14585;DHT22;7379;51.506;11.876;2022-12-18T10:36:08;-3.60;58.70
14585;DHT22;7379;51.506;11.876;2022-12-18T10:38:35;-3.60;58.80
14585;DHT22;7379;51.506;11.876;2022-12-18T10:41:05;-3.60;58.80
14585;DHT22;7379;51.506;11.876;2022-12-18T10:43:36;-3.60;58.80
14585;DHT22;7379;51.506;11.876;2022-12-18T10:46:12;-3.60;58.90
14585;DHT22;7379;51.506;11.876;2022-12-18T10:48:49;-3.60;59.00
14585;DHT22;7379;51.506;11.876;2022-12-18T10:51:20;-3.50;59.10
14585;DHT22;7379;51.506;11.876;2022-12-18T10:53:52;-3.50;59.10
14585;DHT22;7379;51.506;11.876;2022-12-18T10:56:22;-3.50;59.20
14585;DHT22;7379;51.506;11.876;2022-12-18T10:58:57;-3.50;59.20
14585;DHT22;7379;51.506;11.876;2022-12-18T11:01:24;-3.50;59.30
14585;DHT22;7379;51.506;11.876;2022-12-18T11:04:01;-3.50;59.30
14585;DHT22;7379;51.506;11.876;2022-12-18T11:06:29;-3.50;59.40
14585;DHT22;7379;51.506;11.876;2022-12-18T11:09:00;-3.50;59.50
14585;DHT22;7379;51.506;11.876;2022-12-18T11:11:37;-3.50;59.50
14585;DHT22;7379;51.506;11.876;2022-12-18T11:14:06;-3.50;59.60
14585;DHT22;7379;51.506;11.876;2022-12-18T11:16:43;-3.50;59.60
14585;DHT22;7379;51.506;11.876;2022-12-18T11:19:19;-3.40;59.70
14585;DHT22;7379;51.506;11.876;2022-12-18T11:21:47;-3.50;59.60
14585;DHT22;7379;51.506;11.876;2022-12-18T11:24:22;-3.50;59.70
14585;DHT22;7379;51.506;11.876;2022-12-18T11:26:51;-3.50;59.70
14585;DHT22;7379;51.506;11.876;2022-12-18T11:29:36;-3.50;59.80
14585;DHT22;7379;51.506;11.876;2022-12-18T11:32:29;-3.50;59.80
14585;DHT22;7379;51.506;11.876;2022-12-18T11:35:07;-3.40;60.00
14585;DHT22;7379;51.506;11.876;2022-12-18T11:37:36;-3.40;60.00
14585;DHT22;7379;51.506;11.876;2022-12-18T11:40:06;-3.40;60.00
14585;DHT22;7379;51.506;11.876;2022-12-18T11:42:39;-3.40;60.10
14585;DHT22;7379;51.506;11.876;2022-12-18T11:45:25;-3.40;60.20
14585;DHT22;7379;51.506;11.876;2022-12-18T11:47:57;-3.40;60.20
14585;DHT22;7379;51.506;11.876;2022-12-18T11:50:26;-3.40;60.30
14585;DHT22;7379;51.506;11.876;2022-12-18T11:52:55;-3.40;60.30
14585;DHT22;7379;51.506;11.876;2022-12-18T11:55:28;-3.40;60.40
14585;DHT22;7379;51.506;11.876;2022-12-18T11:58:04;-3.40;60.40
14585;DHT22;7379;51.506;11.876;2022-12-18T12:00:37;-3.40;60.50
14585;DHT22;7379;51.506;11.876;2022-12-18T12:03:27;-3.40;60.60
14585;DHT22;7379;51.506;11.876;2022-12-18T12:06:10;-3.40;60.60
14585;DHT22;7379;51.506;11.876;2022-12-18T12:08:57;-3.40;60.60
14585;DHT22;7379;51.506;11.876;2022-12-18T12:11:34;-3.40;60.70
14585;DHT22;7379;51.506;11.876;2022-12-18T12:14:16;-3.40;60.70
14585;DHT22;7379;51.506;11.876;2022-12-18T12:16:50;-3.40;60.70
14585;DHT22;7379;51.506;11.876;2022-12-18T12:19:32;-3.30;60.90
14585;DHT22;7379;51.506;11.876;2022-12-18T12:22:07;-3.30;61.00
14585;DHT22;7379;51.506;11.876;2022-12-18T12:24:44;-3.30;61.00
14585;DHT22;7379;51.506;11.876;2022-12-18T12:27:20;-3.30;61.10
14585;DHT22;7379;51.506;11.876;2022-12-18T12:30:00;-3.30;61.10
14585;DHT22;7379;51.506;11.876;2022-12-18T12:32:49;-3.30;61.10
14585;DHT22;7379;51.506;11.876;2022-12-18T12:35:29;-3.30;62.00
14585;DHT22;7379;51.506;11.876;2022-12-18T12:38:07;-3.30;61.20
14585;DHT22;7379;51.506;11.876;2022-12-18T12:40:41;-3.30;61.30
14585;DHT22;7379;51.506;11.876;2022-12-18T12:43:20;-3.30;61.30
14585;DHT22;7379;51.506;11.876;2022-12-18T12:45:52;-3.30;61.30
14585;DHT22;7379;51.506;11.876;2022-12-18T12:48:38;-3.30;61.40
14585;DHT22;7379;51.506;11.876;2022-12-18T12:51:12;-3.20;61.50
14585;DHT22;7379;51.506;11.876;2022-12-18T12:53:41;-3.20;61.50
14585;DHT22;7379;51.506;11.876;2022-12-18T12:56:10;-3.20;61.50
14585;DHT22;7379;51.506;11.876;2022-12-18T12:58:45;-3.20;61.50
14585;DHT22;7379;51.506;11.876;2022-12-18T13:01:23;-3.20;62.30
14585;DHT22;7379;51.506;11.876;2022-12-18T13:04:01;-3.20;61.60
14585;DHT22;7379;51.506;11.876;2022-12-18T13:06:38;-3.20;61.70
14585;DHT22;7379;51.506;11.876;2022-12-18T13:09:06;-3.20;61.80
14585;DHT22;7379;51.506;11.876;2022-12-18T13:11:38;-3.20;61.80
14585;DHT22;7379;51.506;11.876;2022-12-18T13:14:29;-3.20;61.90
14585;DHT22;7379;51.506;11.876;2022-12-18T13:17:27;-3.20;62.00
14585;DHT22;7379;51.506;11.876;2022-12-18T13:20:11;-3.10;62.20
14585;DHT22;7379;51.506;11.876;2022-12-18T13:22:42;-3.10;62.20
14585;DHT22;7379;51.506;11.876;2022-12-18T13:25:34;-3.10;62.20
14585;DHT22;7379;51.506;11.876;2022-12-18T13:28:07;-3.10;62.30
14585;DHT22;7379;51.506;11.876;2022-12-18T13:30:42;-3.10;62.30
14585;DHT22;7379;51.506;11.876;2022-12-18T13:33:39;-3.10;62.30
14585;DHT22;7379;51.506;11.876;2022-12-18T13:36:13;-3.10;62.40
14585;DHT22;7379;51.506;11.876;2022-12-18T13:38:41;-3.10;62.40
14585;DHT22;7379;51.506;11.876;2022-12-18T13:41:23;-3.10;62.50
14585;DHT22;7379;51.506;11.876;2022-12-18T13:43:51;-3.10;62.50
14585;DHT22;7379;51.506;11.876;2022-12-18T13:46:24;-3.10;62.50
14585;DHT22;7379;51.506;11.876;2022-12-18T13:48:57;-3.10;62.60
14585;DHT22;7379;51.506;11.876;2022-12-18T13:51:24;-3.10;62.60
14585;DHT22;7379;51.506;11.876;2022-12-18T13:53:54;-3.10;62.70
14585;DHT22;7379;51.506;11.876;2022-12-18T13:56:24;-3.10;62.70
14585;DHT22;7379;51.506;11.876;2022-12-18T13:59:10;-3.10;62.70
14585;DHT22;7379;51.506;11.876;2022-12-18T14:01:42;-3.10;62.70
14585;DHT22;7379;51.506;11.876;2022-12-18T14:04:16;-3.10;62.70
14585;DHT22;7379;51.506;11.876;2022-12-18T14:06:45;-3.10;62.70
14585;DHT22;7379;51.506;11.876;2022-12-18T14:09:14;-3.10;62.80
14585;DHT22;7379;51.506;11.876;2022-12-18T14:11:46;-3.10;62.70
14585;DHT22;7379;51.506;11.876;2022-12-18T14:14:14;-3.10;62.70
14585;DHT22;7379;51.506;11.876;2022-12-18T14:16:42;-3.10;62.80
14585;DHT22;7379;51.506;11.876;2022-12-18T14:19:14;-3.10;62.80
14585;DHT22;7379;51.506;11.876;2022-12-18T14:21:46;-3.10;62.80
14585;DHT22;7379;51.506;11.876;2022-12-18T14:24:15;-3.10;62.80
14585;DHT22;7379;51.506;11.876;2022-12-18T14:26:42;-3.10;62.80
14585;DHT22;7379;51.506;11.876;2022-12-18T14:29:21;-3.10;62.80
14585;DHT22;7379;51.506;11.876;2022-12-18T14:32:04;-3.10;62.80
14585;DHT22;7379;51.506;11.876;2022-12-18T14:34:32;-3.10;62.90
14585;DHT22;7379;51.506;11.876;2022-12-18T14:37:03;-3.10;62.90
14585;DHT22;7379;51.506;11.876;2022-12-18T14:39:30;-3.10;62.90
14585;DHT22;7379;51.506;11.876;2022-12-18T14:41:56;-3.10;62.90
14585;DHT22;7379;51.506;11.876;2022-12-18T14:44:23;-3.10;63.00
14585;DHT22;7379;51.506;11.876;2022-12-18T14:46:50;-3.10;63.00
14585;DHT22;7379;51.506;11.876;2022-12-18T14:49:23;-3.10;63.00
14585;DHT22;7379;51.506;11.876;2022-12-18T14:51:54;-3.00;63.10
14585;DHT22;7379;51.506;11.876;2022-12-18T14:54:22;-3.00;63.10
14585;DHT22;7379;51.506;11.876;2022-12-18T14:56:51;-3.10;63.00
14585;DHT22;7379;51.506;11.876;2022-12-18T14:59:23;-3.00;63.10
14585;DHT22;7379;51.506;11.876;2022-12-18T15:02:00;-3.00;63.80
14585;DHT22;7379;51.506;11.876;2022-12-18T15:04:30;-3.10;63.10
14585;DHT22;7379;51.506;11.876;2022-12-18T15:07:09;-3.10;63.10
14585;DHT22;7379;51.506;11.876;2022-12-18T15:09:38;-3.00;63.20
14585;DHT22;7379;51.506;11.876;2022-12-18T15:12:16;-3.10;63.10
14585;DHT22;7379;51.506;11.876;2022-12-18T15:14:46;-3.10;63.10
14585;DHT22;7379;51.506;11.876;2022-12-18T15:17:18;-3.00;63.20
14585;DHT22;7379;51.506;11.876;2022-12-18T15:19:47;-3.00;63.20
14585;DHT22;7379;51.506;11.876;2022-12-18T15:22:21;-3.00;63.40
14585;DHT22;7379;51.506;11.876;2022-12-18T15:24:49;-3.00;63.20
14585;DHT22;7379;51.506;11.876;2022-12-18T15:27:26;-3.00;63.10
14585;DHT22;7379;51.506;11.876;2022-12-18T15:30:15;-3.00;63.10
14585;DHT22;7379;51.506;11.876;2022-12-18T15:32:43;-3.00;63.10
14585;DHT22;7379;51.506;11.876;2022-12-18T15:35:14;-3.00;63.20
14585;DHT22;7379;51.506;11.876;2022-12-18T15:37:43;-3.00;63.20
14585;DHT22;7379;51.506;11.876;2022-12-18T15:40:13;-3.00;63.20
14585;DHT22;7379;51.506;11.876;2022-12-18T15:42:40;-3.00;63.20
14585;DHT22;7379;51.506;11.876;2022-12-18T15:45:25;-3.00;63.20
14585;DHT22;7379;51.506;11.876;2022-12-18T15:47:52;-3.00;63.20
14585;DHT22;7379;51.506;11.876;2022-12-18T15:50:18;-3.00;63.30
14585;DHT22;7379;51.506;11.876;2022-12-18T15:52:49;-3.00;63.30
14585;DHT22;7379;51.506;11.876;2022-12-18T15:55:18;-3.00;63.30